sensor_id;sensor_type;location;lat;lon;timestamp;pressure;altitude;pressure_sealevel;temperature;humidity
32131;BME280;18639;50.716;7.086;2023-09-08T00:00:29;100588.75;;;17.37;100.00
32131;BME280;18639;50.716;7.086;2023-09-08T00:02:54;100603.88;;;17.43;100.00
32131;BME280;18639;50.716;7.086;2023-09-08T00:05:19;100608.16;;;17.44;100.00
32131;BME280;18639;50.716;7.086;2023-09-08T00:07:45;100570.75;;;17.14;100.00
32131;BME280;18639;50.716;7.086;2023-09-08T00:10:10;100599.19;;;17.37;100.00
32131;BME280;18639;50.716;7.086;2023-09-08T00:12:37;100592.59;;;17.33;100.00
32131;BME280;18639;50.716;7.086;2023-09-08T00:15:02;100601.81;;;17.37;100.00
32131;BME280;18639;50.716;7.086;2023-09-08T00:17:27;100598.66;;;17.33;100.00
32131;BME280;18639;50.716;7.086;2023-09-08T00:19:53;100593.00;;;17.28;100.00
32131;BME280;18639;50.716;7.086;2023-09-08T00:22:18;100581.84;;;17.16;100.00
32131;BME280;18639;50.716;7.086;2023-09-08T00:24:43;100601.81;;;17.27;100.00
32131;BME280;18639;50.716;7.086;2023-09-08T00:27:09;100577.88;;;17.12;100.00
32131;BME280;18639;50.716;7.086;2023-09-08T00:29:35;100591.06;;;17.20;100.00
32131;BME280;18639;50.716;7.086;2023-09-08T00:32:00;100598.91;;;17.20;100.00
32131;BME280;18639;50.716;7.086;2023-09-08T00:34:25;100584.34;;;17.08;100.00
32131;BME280;18639;50.716;7.086;2023-09-08T00:36:51;100582.13;;;17.13;100.00
32131;BME280;18639;50.716;7.086;2023-09-08T00:39:16;100597.13;;;17.21;100.00
32131;BME280;18639;50.716;7.086;2023-09-08T00:41:41;100593.41;;;17.14;100.00
32131;BME280;18639;50.716;7.086;2023-09-08T00:44:07;100590.94;;;17.12;100.00
32131;BME280;18639;50.716;7.086;2023-09-08T00:46:34;100588.44;;;17.11;100.00
32131;BME280;18639;50.716;7.086;2023-09-08T00:49:00;100581.31;;;17.03;100.00
32131;BME280;18639;50.716;7.086;2023-09-08T00:51:25;100573.88;;;16.99;100.00
32131;BME280;18639;50.716;7.086;2023-09-08T00:53:51;100595.84;;;17.06;100.00
32131;BME280;18639;50.716;7.086;2023-09-08T00:56:16;100575.47;;;16.90;100.00
32131;BME280;18639;50.716;7.086;2023-09-08T00:58:42;100586.34;;;16.95;100.00
32131;BME280;18639;50.716;7.086;2023-09-08T01:01:07;100586.34;;;16.86;100.00
32131;BME280;18639;50.716;7.086;2023-09-08T01:03:33;100595.97;;;16.95;100.00
32131;BME280;18639;50.716;7.086;2023-09-08T01:05:58;100589.78;;;16.86;100.00
32131;BME280;18639;50.716;7.086;2023-09-08T01:08:25;100593.22;;;16.87;100.00
32131;BME280;18639;50.716;7.086;2023-09-08T01:10:51;100596.66;;;16.87;100.00
32131;BME280;18639;50.716;7.086;2023-09-08T01:13:16;100600.03;;;16.78;100.00
32131;BME280;18639;50.716;7.086;2023-09-08T01:15:42;100592.75;;;16.72;100.00
32131;BME280;18639;50.716;7.086;2023-09-08T01:18:07;100600.84;;;16.69;100.00
32131;BME280;18639;50.716;7.086;2023-09-08T01:21:09;100591.88;;;16.62;100.00
32131;BME280;18639;50.716;7.086;2023-09-08T01:26:37;100606.94;;;16.58;100.00
32131;BME280;18639;50.716;7.086;2023-09-08T01:29:06;100599.91;;;16.49;100.00
32131;BME280;18639;50.716;7.086;2023-09-08T01:31:33;100606.63;;;16.52;100.00
32131;BME280;18639;50.716;7.086;2023-09-08T01:34:01;100587.78;;;16.38;100.00
32131;BME280;18639;50.716;7.086;2023-09-08T01:36:31;100568.66;;;16.28;100.00
32131;BME280;18639;50.716;7.086;2023-09-08T01:38:56;100574.53;;;16.30;100.00
32131;BME280;18639;50.716;7.086;2023-09-08T01:41:22;100578.25;;;16.28;100.00
32131;BME280;18639;50.716;7.086;2023-09-08T01:43:47;100582.38;;;16.30;100.00
32131;BME280;18639;50.716;7.086;2023-09-08T01:46:12;100578.66;;;16.23;100.00
32131;BME280;18639;50.716;7.086;2023-09-08T01:48:38;100596.22;;;16.31;100.00
32131;BME280;18639;50.716;7.086;2023-09-08T01:51:03;100567.91;;;16.17;100.00
32131;BME280;18639;50.716;7.086;2023-09-08T01:53:28;100584.53;;;16.25;100.00
32131;BME280;18639;50.716;7.086;2023-09-08T01:55:53;100587.66;;;16.19;100.00
32131;BME280;18639;50.716;7.086;2023-09-08T01:58:19;100571.28;;;16.08;100.00
32131;BME280;18639;50.716;7.086;2023-09-08T02:00:48;100576.09;;;16.12;100.00
32131;BME280;18639;50.716;7.086;2023-09-08T02:03:13;100571.97;;;16.10;100.00
32131;BME280;18639;50.716;7.086;2023-09-08T02:05:40;100570.31;;;16.09;100.00
32131;BME280;18639;50.716;7.086;2023-09-08T02:08:05;100578.56;;;16.14;100.00
32131;BME280;18639;50.716;7.086;2023-09-08T02:10:31;100587.47;;;16.11;100.00
32131;BME280;18639;50.716;7.086;2023-09-08T02:12:57;100575.91;;;16.04;100.00
32131;BME280;18639;50.716;7.086;2023-09-08T02:15:22;100561.38;;;16.02;100.00
32131;BME280;18639;50.716;7.086;2023-09-08T02:17:52;100574.53;;;16.00;100.00
32131;BME280;18639;50.716;7.086;2023-09-08T02:20:18;100562.69;;;15.96;100.00
32131;BME280;18639;50.716;7.086;2023-09-08T02:22:43;100561.88;;;15.95;100.00
32131;BME280;18639;50.716;7.086;2023-09-08T02:25:08;100578.50;;;16.04;100.00
32131;BME280;18639;50.716;7.086;2023-09-08T02:27:34;100557.72;;;15.93;100.00
32131;BME280;18639;50.716;7.086;2023-09-08T02:29:59;100547.00;;;15.86;100.00
32131;BME280;18639;50.716;7.086;2023-09-08T02:32:24;100491.97;;;15.59;100.00
32131;BME280;18639;50.716;7.086;2023-09-08T02:34:49;100559.16;;;15.97;100.00
32131;BME280;18639;50.716;7.086;2023-09-08T02:37:15;100557.50;;;15.96;100.00
32131;BME280;18639;50.716;7.086;2023-09-08T02:39:40;100562.56;;;15.97;100.00
32131;BME280;18639;50.716;7.086;2023-09-08T02:42:06;100557.72;;;15.93;100.00
32131;BME280;18639;50.716;7.086;2023-09-08T02:44:32;100550.56;;;15.85;100.00
32131;BME280;18639;50.716;7.086;2023-09-08T02:46:57;100538.72;;;15.81;100.00
32131;BME280;18639;50.716;7.086;2023-09-08T02:49:22;100563.88;;;15.92;100.00
32131;BME280;18639;50.716;7.086;2023-09-08T02:51:47;100545.03;;;15.79;100.00
32131;BME280;18639;50.716;7.086;2023-09-08T02:54:13;100555.19;;;15.82;100.00
32131;BME280;18639;50.716;7.086;2023-09-08T02:56:38;100544.47;;;15.75;100.00
32131;BME280;18639;50.716;7.086;2023-09-08T02:59:03;100552.00;;;15.78;100.00
32131;BME280;18639;50.716;7.086;2023-09-08T03:01:28;100536.19;;;15.70;100.00
32131;BME280;18639;50.716;7.086;2023-09-08T03:03:54;100559.72;;;15.80;100.00
32131;BME280;18639;50.716;7.086;2023-09-08T03:06:20;100563.59;;;15.85;100.00
32131;BME280;18639;50.716;7.086;2023-09-08T03:08:46;100571.53;;;15.84;100.00
32131;BME280;18639;50.716;7.086;2023-09-08T03:11:12;100540.13;;;15.65;100.00
32131;BME280;18639;50.716;7.086;2023-09-08T03:13:37;100545.53;;;15.73;100.00
32131;BME280;18639;50.716;7.086;2023-09-08T03:16:07;100562.31;;;15.80;100.00
32131;BME280;18639;50.716;7.086;2023-09-08T03:18:34;100558.31;;;15.76;100.00
32131;BME280;18639;50.716;7.086;2023-09-08T03:21:02;100559.00;;;15.78;100.00
32131;BME280;18639;50.716;7.086;2023-09-08T03:23:34;100533.66;;;15.59;100.00
32131;BME280;18639;50.716;7.086;2023-09-08T03:25:59;100537.78;;;15.62;100.00
32131;BME280;18639;50.716;7.086;2023-09-08T03:28:25;100555.94;;;15.73;100.00
32131;BME280;18639;50.716;7.086;2023-09-08T03:30:50;100554.19;;;15.73;100.00
32131;BME280;18639;50.716;7.086;2023-09-08T03:33:15;100549.09;;;15.72;100.00
32131;BME280;18639;50.716;7.086;2023-09-08T03:35:40;100531.16;;;15.57;100.00
32131;BME280;18639;50.716;7.086;2023-09-08T03:38:06;100540.75;;;15.57;100.00
32131;BME280;18639;50.716;7.086;2023-09-08T03:40:31;100543.56;;;15.65;100.00
32131;BME280;18639;50.716;7.086;2023-09-08T03:42:56;100529.28;;;15.60;100.00
32131;BME280;18639;50.716;7.086;2023-09-08T03:45:22;100523.63;;;15.54;100.00
32131;BME280;18639;50.716;7.086;2023-09-08T03:47:47;100558.94;;;15.68;100.00
32131;BME280;18639;50.716;7.086;2023-09-08T03:50:12;100539.69;;;15.60;100.00
32131;BME280;18639;50.716;7.086;2023-09-08T03:52:37;100524.09;;;15.48;100.00
32131;BME280;18639;50.716;7.086;2023-09-08T03:55:03;100537.22;;;15.58;100.00
32131;BME280;18639;50.716;7.086;2023-09-08T03:57:28;100534.72;;;15.56;100.00
32131;BME280;18639;50.716;7.086;2023-09-08T03:59:54;100538.53;;;15.52;100.00
32131;BME280;18639;50.716;7.086;2023-09-08T04:02:19;100559.22;;;15.65;100.00
32131;BME280;18639;50.716;7.086;2023-09-08T04:04:44;100521.72;;;15.45;100.00
32131;BME280;18639;50.716;7.086;2023-09-08T04:07:10;100548.47;;;15.58;100.00
32131;BME280;18639;50.716;7.086;2023-09-08T04:09:35;100514.56;;;15.38;100.00
32131;BME280;18639;50.716;7.086;2023-09-08T04:12:00;100514.78;;;15.35;100.00
32131;BME280;18639;50.716;7.086;2023-09-08T04:14:26;100543.00;;;15.50;100.00
32131;BME280;18639;50.716;7.086;2023-09-08T04:16:53;100524.81;;;15.39;100.00
32131;BME280;18639;50.716;7.086;2023-09-08T04:19:19;100529.34;;;15.37;100.00
32131;BME280;18639;50.716;7.086;2023-09-08T04:21:44;100534.28;;;15.40;100.00
32131;BME280;18639;50.716;7.086;2023-09-08T04:24:09;100526.41;;;15.31;100.00
32131;BME280;18639;50.716;7.086;2023-09-08T04:26:37;100543.03;;;15.39;100.00
32131;BME280;18639;50.716;7.086;2023-09-08T04:29:02;100555.47;;;15.47;100.00
32131;BME280;18639;50.716;7.086;2023-09-08T04:31:28;100557.50;;;15.43;100.00
32131;BME280;18639;50.716;7.086;2023-09-08T04:33:53;100542.75;;;15.33;100.00
32131;BME280;18639;50.716;7.086;2023-09-08T04:36:19;100555.13;;;15.40;100.00
32131;BME280;18639;50.716;7.086;2023-09-08T04:38:44;100563.06;;;15.39;100.00
32131;BME280;18639;50.716;7.086;2023-09-08T04:41:10;100555.13;;;15.40;100.00
32131;BME280;18639;50.716;7.086;2023-09-08T04:43:35;100542.28;;;15.28;100.00
32131;BME280;18639;50.716;7.086;2023-09-08T04:46:00;100544.06;;;15.27;100.00
32131;BME280;18639;50.716;7.086;2023-09-08T04:48:28;100549.47;;;15.35;100.00
32131;BME280;18639;50.716;7.086;2023-09-08T04:50:53;100515.94;;;15.10;100.00
32131;BME280;18639;50.716;7.086;2023-09-08T04:53:18;100542.16;;;15.29;100.00
32131;BME280;18639;50.716;7.086;2023-09-08T04:55:43;100546.41;;;15.30;100.00
32131;BME280;18639;50.716;7.086;2023-09-08T04:58:09;100528.66;;;15.24;100.00
32131;BME280;18639;50.716;7.086;2023-09-08T05:00:34;100548.75;;;15.33;100.00
32131;BME280;18639;50.716;7.086;2023-09-08T05:03:00;100568.25;;;15.39;100.00
32131;BME280;18639;50.716;7.086;2023-09-08T05:05:25;100549.34;;;15.37;100.00
32131;BME280;18639;50.716;7.086;2023-09-08T05:07:50;100553.16;;;15.33;100.00
32131;BME280;18639;50.716;7.086;2023-09-08T05:10:18;100563.88;;;15.39;100.00
32131;BME280;18639;50.716;7.086;2023-09-08T05:12:44;100561.16;;;15.41;100.00
32131;BME280;18639;50.716;7.086;2023-09-08T05:15:09;100568.25;;;15.39;100.00
32131;BME280;18639;50.716;7.086;2023-09-08T05:17:40;100569.69;;;15.43;100.00
32131;BME280;18639;50.716;7.086;2023-09-08T05:20:06;100556.78;;;15.41;100.00
32131;BME280;18639;50.716;7.086;2023-09-08T05:22:31;100559.28;;;15.43;100.00
32131;BME280;18639;50.716;7.086;2023-09-08T05:24:56;100486.53;;;14.98;100.00
32131;BME280;18639;50.716;7.086;2023-09-08T05:27:22;100517.69;;;15.21;100.00
32131;BME280;18639;50.716;7.086;2023-09-08T05:29:47;100538.81;;;15.38;100.00
32131;BME280;18639;50.716;7.086;2023-09-08T05:32:12;100512.09;;;15.25;100.00
32131;BME280;18639;50.716;7.086;2023-09-08T05:34:37;100556.84;;;15.51;100.00
32131;BME280;18639;50.716;7.086;2023-09-08T05:37:03;100565.41;;;15.53;100.00
32131;BME280;18639;50.716;7.086;2023-09-08T05:39:28;100553.41;;;15.50;100.00
32131;BME280;18639;50.716;7.086;2023-09-08T05:41:53;100558.44;;;15.53;100.00
32131;BME280;18639;50.716;7.086;2023-09-08T05:44:20;100560.53;;;15.60;100.00
32131;BME280;18639;50.716;7.086;2023-09-08T05:46:45;100532.72;;;15.49;100.00
32131;BME280;18639;50.716;7.086;2023-09-08T05:49:10;100553.28;;;15.63;100.00
32131;BME280;18639;50.716;7.086;2023-09-08T05:51:36;100566.81;;;15.78;100.00
32131;BME280;18639;50.716;7.086;2023-09-08T05:54:01;100552.63;;;15.71;100.00
32131;BME280;18639;50.716;7.086;2023-09-08T05:56:30;100567.97;;;15.85;100.00
32131;BME280;18639;50.716;7.086;2023-09-08T05:58:56;100563.44;;;15.87;100.00
32131;BME280;18639;50.716;7.086;2023-09-08T06:01:22;100544.63;;;15.83;100.00
32131;BME280;18639;50.716;7.086;2023-09-08T06:03:47;100487.41;;;15.40;100.00
32131;BME280;18639;50.716;7.086;2023-09-08T06:06:12;100554.16;;;15.94;100.00
32131;BME280;18639;50.716;7.086;2023-09-08T06:08:38;100573.50;;;16.12;100.00
32131;BME280;18639;50.716;7.086;2023-09-08T06:11:03;100574.88;;;16.16;100.00
32131;BME280;18639;50.716;7.086;2023-09-08T06:13:28;100566.13;;;16.17;100.00
32131;BME280;18639;50.716;7.086;2023-09-08T06:15:54;100575.63;;;16.28;100.00
32131;BME280;18639;50.716;7.086;2023-09-08T06:18:19;100556.78;;;16.24;100.00
32131;BME280;18639;50.716;7.086;2023-09-08T06:20:48;100557.94;;;16.31;100.00
32131;BME280;18639;50.716;7.086;2023-09-08T06:23:14;100540.63;;;16.30;100.00
32131;BME280;18639;50.716;7.086;2023-09-08T06:25:39;100554.03;;;16.47;100.00
32131;BME280;18639;50.716;7.086;2023-09-08T06:28:04;100554.44;;;16.52;100.00
32131;BME280;18639;50.716;7.086;2023-09-08T06:30:30;100547.44;;;16.52;100.00
32131;BME280;18639;50.716;7.086;2023-09-08T06:32:55;100565.00;;;16.71;100.00
32131;BME280;18639;50.716;7.086;2023-09-08T06:35:21;100549.34;;;16.71;100.00
32131;BME280;18639;50.716;7.086;2023-09-08T06:37:46;100578.53;;;16.95;100.00
32131;BME280;18639;50.716;7.086;2023-09-08T06:40:11;100566.84;;;16.99;100.00
32131;BME280;18639;50.716;7.086;2023-09-08T06:42:36;100561.25;;;17.04;100.00
32131;BME280;18639;50.716;7.086;2023-09-08T06:45:02;100530.44;;;16.98;100.00
32131;BME280;18639;50.716;7.086;2023-09-08T06:47:27;100554.78;;;17.17;100.00
32131;BME280;18639;50.716;7.086;2023-09-08T06:49:53;100572.53;;;17.43;100.00
32131;BME280;18639;50.716;7.086;2023-09-08T06:52:18;100553.28;;;17.44;100.00
32131;BME280;18639;50.716;7.086;2023-09-08T06:54:43;100567.56;;;17.59;100.00
32131;BME280;18639;50.716;7.086;2023-09-08T06:57:12;100553.03;;;17.66;100.00
32131;BME280;18639;50.716;7.086;2023-09-08T06:59:37;100549.97;;;17.80;100.00
32131;BME280;18639;50.716;7.086;2023-09-08T07:02:02;100561.06;;;18.01;100.00
32131;BME280;18639;50.716;7.086;2023-09-08T07:04:29;100562.53;;;18.23;100.00
32131;BME280;18639;50.716;7.086;2023-09-08T07:06:54;100556.59;;;18.31;100.00
32131;BME280;18639;50.716;7.086;2023-09-08T07:09:20;100556.94;;;18.45;100.00
32131;BME280;18639;50.716;7.086;2023-09-08T07:11:45;100533.91;;;18.49;100.00
32131;BME280;18639;50.716;7.086;2023-09-08T07:14:12;100526.59;;;18.62;100.00
32131;BME280;18639;50.716;7.086;2023-09-08T07:16:37;100528.00;;;18.84;100.00
32131;BME280;18639;50.716;7.086;2023-09-08T07:19:02;100542.16;;;19.09;100.00
32131;BME280;18639;50.716;7.086;2023-09-08T07:21:28;100547.25;;;19.28;100.00
32131;BME280;18639;50.716;7.086;2023-09-08T07:23:53;100520.38;;;19.26;100.00
32131;BME280;18639;50.716;7.086;2023-09-08T07:26:21;100548.00;;;19.56;100.00
32131;BME280;18639;50.716;7.086;2023-09-08T07:28:46;100545.00;;;19.68;100.00
32131;BME280;18639;50.716;7.086;2023-09-08T07:31:12;100536.03;;;19.97;100.00
32131;BME280;18639;50.716;7.086;2023-09-08T07:33:38;100541.88;;;20.16;100.00
32131;BME280;18639;50.716;7.086;2023-09-08T07:36:07;100556.78;;;20.42;100.00
32131;BME280;18639;50.716;7.086;2023-09-08T07:38:32;100545.25;;;20.69;100.00
32131;BME280;18639;50.716;7.086;2023-09-08T07:40:58;100549.91;;;20.91;100.00
32131;BME280;18639;50.716;7.086;2023-09-08T07:43:25;100544.75;;;21.15;100.00
32131;BME280;18639;50.716;7.086;2023-09-08T07:45:51;100556.91;;;21.49;100.00
32131;BME280;18639;50.716;7.086;2023-09-08T07:48:16;100557.25;;;21.78;100.00
32131;BME280;18639;50.716;7.086;2023-09-08T07:50:42;100537.66;;;21.89;100.00
32131;BME280;18639;50.716;7.086;2023-09-08T07:53:07;100547.53;;;22.11;100.00
32131;BME280;18639;50.716;7.086;2023-09-08T07:55:33;100537.13;;;22.25;100.00
32131;BME280;18639;50.716;7.086;2023-09-08T07:57:58;100552.50;;;22.53;97.65
32131;BME280;18639;50.716;7.086;2023-09-08T08:00:23;100552.13;;;22.64;100.00
32131;BME280;18639;50.716;7.086;2023-09-08T08:02:51;100547.94;;;22.78;100.00
32131;BME280;18639;50.716;7.086;2023-09-08T08:05:18;100546.41;;;22.91;100.00
32131;BME280;18639;50.716;7.086;2023-09-08T08:07:43;100542.41;;;22.95;96.97
32131;BME280;18639;50.716;7.086;2023-09-08T08:10:09;100537.97;;;23.19;96.53
32131;BME280;18639;50.716;7.086;2023-09-08T08:12:36;100549.22;;;23.35;97.16
32131;BME280;18639;50.716;7.086;2023-09-08T08:15:01;100548.00;;;23.46;93.92
32131;BME280;18639;50.716;7.086;2023-09-08T08:17:27;100553.53;;;23.59;94.94
32131;BME280;18639;50.716;7.086;2023-09-08T08:19:54;100535.34;;;23.64;98.58
32131;BME280;18639;50.716;7.086;2023-09-08T08:22:19;100547.38;;;23.81;93.76
32131;BME280;18639;50.716;7.086;2023-09-08T08:24:45;100538.00;;;23.93;86.96
32131;BME280;18639;50.716;7.086;2023-09-08T08:27:11;100553.47;;;24.19;88.07
32131;BME280;18639;50.716;7.086;2023-09-08T08:29:36;100552.47;;;24.35;88.08
32131;BME280;18639;50.716;7.086;2023-09-08T08:32:02;100552.28;;;24.51;84.94
32131;BME280;18639;50.716;7.086;2023-09-08T08:34:27;100540.06;;;24.50;88.13
32131;BME280;18639;50.716;7.086;2023-09-08T08:36:53;100548.56;;;24.82;86.06
32131;BME280;18639;50.716;7.086;2023-09-08T08:39:18;100552.97;;;25.10;80.81
32131;BME280;18639;50.716;7.086;2023-09-08T08:41:44;100527.59;;;25.16;82.71
32131;BME280;18639;50.716;7.086;2023-09-08T08:44:10;100535.53;;;25.37;82.31
32131;BME280;18639;50.716;7.086;2023-09-08T08:46:36;100537.63;;;25.48;81.62
32131;BME280;18639;50.716;7.086;2023-09-08T08:49:05;100521.75;;;25.48;74.07
32131;BME280;18639;50.716;7.086;2023-09-08T08:51:32;100509.31;;;25.64;76.37
32131;BME280;18639;50.716;7.086;2023-09-08T08:53:57;100532.34;;;25.97;74.42
32131;BME280;18639;50.716;7.086;2023-09-08T08:56:23;100535.91;;;26.18;72.89
32131;BME280;18639;50.716;7.086;2023-09-08T08:58:50;100531.22;;;26.48;73.38
32131;BME280;18639;50.716;7.086;2023-09-08T09:01:16;100527.22;;;26.78;69.68
32131;BME280;18639;50.716;7.086;2023-09-08T09:03:46;100520.38;;;27.10;64.00
32131;BME280;18639;50.716;7.086;2023-09-08T09:06:14;100513.06;;;27.45;68.22
32131;BME280;18639;50.716;7.086;2023-09-08T09:08:42;100522.06;;;27.83;58.01
32131;BME280;18639;50.716;7.086;2023-09-08T09:11:08;100531.41;;;28.25;54.54
32131;BME280;18639;50.716;7.086;2023-09-08T09:13:33;100533.13;;;28.96;56.99
32131;BME280;18639;50.716;7.086;2023-09-08T09:15:59;100542.09;;;29.64;53.00
32131;BME280;18639;50.716;7.086;2023-09-08T09:18:25;100532.47;;;30.24;47.82
32131;BME280;18639;50.716;7.086;2023-09-08T09:20:55;100532.47;;;30.61;47.87
32131;BME280;18639;50.716;7.086;2023-09-08T09:23:34;100528.72;;;31.21;47.84
32131;BME280;18639;50.716;7.086;2023-09-08T09:26:01;100534.16;;;31.80;46.23
32131;BME280;18639;50.716;7.086;2023-09-08T09:28:29;100536.91;;;32.31;46.03
32131;BME280;18639;50.716;7.086;2023-09-08T09:30:54;100535.94;;;32.77;45.44
32131;BME280;18639;50.716;7.086;2023-09-08T09:33:21;100542.16;;;32.94;43.92
32131;BME280;18639;50.716;7.086;2023-09-08T09:35:48;100541.94;;;33.13;42.99
32131;BME280;18639;50.716;7.086;2023-09-08T09:38:18;100536.25;;;33.09;42.24
32131;BME280;18639;50.716;7.086;2023-09-08T09:40:45;100538.47;;;33.29;41.35
32131;BME280;18639;50.716;7.086;2023-09-08T09:43:11;100530.13;;;33.42;42.14
32131;BME280;18639;50.716;7.086;2023-09-08T09:45:37;100539.22;;;33.41;41.84
32131;BME280;18639;50.716;7.086;2023-09-08T09:48:04;100535.72;;;33.40;41.02
32131;BME280;18639;50.716;7.086;2023-09-08T09:50:37;100527.06;;;33.33;41.94
32131;BME280;18639;50.716;7.086;2023-09-08T09:53:15;100534.00;;;33.34;41.20
32131;BME280;18639;50.716;7.086;2023-09-08T09:55:43;100532.22;;;33.23;41.75
32131;BME280;18639;50.716;7.086;2023-09-08T09:58:09;100520.88;;;33.33;42.51
32131;BME280;18639;50.716;7.086;2023-09-08T10:00:36;100529.63;;;33.62;43.16
32131;BME280;18639;50.716;7.086;2023-09-08T10:03:03;100505.09;;;33.53;42.22
32131;BME280;18639;50.716;7.086;2023-09-08T10:05:29;100518.25;;;33.71;42.44
32131;BME280;18639;50.716;7.086;2023-09-08T10:07:54;100529.63;;;33.78;40.93
32131;BME280;18639;50.716;7.086;2023-09-08T10:10:20;100534.06;;;33.90;42.14
32131;BME280;18639;50.716;7.086;2023-09-08T10:12:53;100519.78;;;33.67;39.10
32131;BME280;18639;50.716;7.086;2023-09-08T10:15:21;100511.69;;;33.29;40.72
32131;BME280;18639;50.716;7.086;2023-09-08T10:17:53;100532.59;;;33.15;41.77
32131;BME280;18639;50.716;7.086;2023-09-08T10:20:19;100518.06;;;32.94;42.04
32131;BME280;18639;50.716;7.086;2023-09-08T10:22:47;100521.03;;;32.81;42.75
32131;BME280;18639;50.716;7.086;2023-09-08T10:25:16;100504.50;;;32.84;43.93
32131;BME280;18639;50.716;7.086;2023-09-08T10:27:42;100519.78;;;32.72;42.18
32131;BME280;18639;50.716;7.086;2023-09-08T10:30:08;100528.97;;;32.76;44.22
32131;BME280;18639;50.716;7.086;2023-09-08T10:32:36;100524.88;;;32.85;45.22
32131;BME280;18639;50.716;7.086;2023-09-08T10:35:05;100530.56;;;33.06;44.54
32131;BME280;18639;50.716;7.086;2023-09-08T10:37:31;100531.81;;;32.86;43.91
32131;BME280;18639;50.716;7.086;2023-09-08T10:40:21;100521.84;;;32.53;43.88
32131;BME280;18639;50.716;7.086;2023-09-08T10:42:47;100517.50;;;32.24;46.48
32131;BME280;18639;50.716;7.086;2023-09-08T10:45:17;100514.28;;;31.64;44.06
32131;BME280;18639;50.716;7.086;2023-09-08T10:50:25;100516.59;;;30.66;45.75
32131;BME280;18639;50.716;7.086;2023-09-08T10:55:52;100513.34;;;29.66;49.08
32131;BME280;18639;50.716;7.086;2023-09-08T10:58:33;100503.84;;;29.27;49.16
32131;BME280;18639;50.716;7.086;2023-09-08T11:00:59;100508.47;;;29.07;50.24
32131;BME280;18639;50.716;7.086;2023-09-08T11:06:06;100509.56;;;28.61;52.23
32131;BME280;18639;50.716;7.086;2023-09-08T11:08:42;100508.84;;;28.34;52.29
32131;BME280;18639;50.716;7.086;2023-09-08T11:11:09;100501.09;;;28.26;52.86
32131;BME280;18639;50.716;7.086;2023-09-08T11:13:35;100498.91;;;28.17;52.29
32131;BME280;18639;50.716;7.086;2023-09-08T11:16:01;100499.31;;;28.07;52.95
32131;BME280;18639;50.716;7.086;2023-09-08T11:18:28;100507.28;;;28.07;53.23
32131;BME280;18639;50.716;7.086;2023-09-08T11:20:54;100503.41;;;28.03;53.92
32131;BME280;18639;50.716;7.086;2023-09-08T11:23:23;100501.41;;;27.92;55.33
32131;BME280;18639;50.716;7.086;2023-09-08T11:25:50;100503.88;;;27.87;53.57
32131;BME280;18639;50.716;7.086;2023-09-08T11:28:21;100499.19;;;27.82;53.89
32131;BME280;18639;50.716;7.086;2023-09-08T11:30:47;100499.56;;;27.79;53.54
32131;BME280;18639;50.716;7.086;2023-09-08T11:33:17;100507.53;;;27.79;54.94
32131;BME280;18639;50.716;7.086;2023-09-08T11:35:47;100495.50;;;27.70;55.16
32131;BME280;18639;50.716;7.086;2023-09-08T11:38:13;100498.59;;;27.67;54.86
32131;BME280;18639;50.716;7.086;2023-09-08T11:40:39;100499.63;;;27.66;55.59
32131;BME280;18639;50.716;7.086;2023-09-08T11:43:06;100484.91;;;27.50;53.08
32131;BME280;18639;50.716;7.086;2023-09-08T11:45:35;100495.94;;;27.60;54.61
32131;BME280;18639;50.716;7.086;2023-09-08T11:48:01;100495.50;;;27.63;54.76
32131;BME280;18639;50.716;7.086;2023-09-08T11:50:27;100487.16;;;27.53;55.20
32131;BME280;18639;50.716;7.086;2023-09-08T11:52:53;100489.59;;;27.55;55.50
32131;BME280;18639;50.716;7.086;2023-09-08T11:55:21;100482.47;;;27.55;55.40
32131;BME280;18639;50.716;7.086;2023-09-08T11:57:52;100484.91;;;27.50;54.94
32131;BME280;18639;50.716;7.086;2023-09-08T12:00:20;100498.16;;;27.63;54.39
32131;BME280;18639;50.716;7.086;2023-09-08T12:02:48;100489.63;;;27.61;54.73
32131;BME280;18639;50.716;7.086;2023-09-08T12:05:21;100499.41;;;27.61;57.13
32131;BME280;18639;50.716;7.086;2023-09-08T12:07:49;100481.66;;;27.55;56.28
32131;BME280;18639;50.716;7.086;2023-09-08T12:10:14;100493.47;;;27.52;57.18
32131;BME280;18639;50.716;7.086;2023-09-08T12:12:48;100480.41;;;27.44;56.38
32131;BME280;18639;50.716;7.086;2023-09-08T12:15:30;100491.66;;;27.53;55.58
32131;BME280;18639;50.716;7.086;2023-09-08T12:17:59;100483.47;;;27.54;55.80
32131;BME280;18639;50.716;7.086;2023-09-08T12:20:24;100486.09;;;27.48;56.42
32131;BME280;18639;50.716;7.086;2023-09-08T12:22:50;100472.22;;;27.59;53.71
32131;BME280;18639;50.716;7.086;2023-09-08T12:25:16;100466.69;;;27.47;54.95
32131;BME280;18639;50.716;7.086;2023-09-08T12:27:45;100452.22;;;27.37;55.50
32131;BME280;18639;50.716;7.086;2023-09-08T12:30:22;100478.38;;;27.53;55.19
32131;BME280;18639;50.716;7.086;2023-09-08T12:32:56;100460.41;;;27.35;56.04
32131;BME280;18639;50.716;7.086;2023-09-08T12:35:22;100471.19;;;27.47;55.31
32131;BME280;18639;50.716;7.086;2023-09-08T12:37:56;100475.91;;;27.51;55.03
32131;BME280;18639;50.716;7.086;2023-09-08T12:40:23;100464.28;;;27.52;55.50
32131;BME280;18639;50.716;7.086;2023-09-08T12:42:48;100470.41;;;27.59;54.40
32131;BME280;18639;50.716;7.086;2023-09-08T12:45:13;100475.72;;;27.59;55.11
32131;BME280;18639;50.716;7.086;2023-09-08T12:47:39;100480.81;;;27.54;57.79
32131;BME280;18639;50.716;7.086;2023-09-08T12:50:04;100466.09;;;27.52;57.27